createdAt,value
2022-12-03T00:00:18.992Z,-0.30
2022-12-03T00:03:07.558Z,-0.40
2022-12-03T00:05:56.121Z,-0.60
2022-12-03T00:08:45.990Z,-0.50
2022-12-03T00:11:34.448Z,-0.60
2022-12-03T00:14:22.893Z,-0.50
2022-12-03T00:17:11.415Z,-0.50
2022-12-03T00:20:00.612Z,-0.60
2022-12-03T00:22:49.118Z,-0.60
2022-12-03T00:25:38.944Z,-0.40
2022-12-03T00:28:27.663Z,-0.40
2022-12-03T00:31:16.379Z,-0.40
2022-12-03T00:34:04.933Z,-0.20
2022-12-03T00:36:53.725Z,-0.20
2022-12-03T00:39:42.222Z,0.00
2022-12-03T00:42:32.190Z,0.00
2022-12-03T00:45:20.610Z,0.10
2022-12-03T00:48:09.112Z,-0.30
2022-12-03T00:50:57.658Z,-0.40
2022-12-03T00:53:46.123Z,-0.40
2022-12-03T00:56:34.608Z,-0.40
2022-12-03T00:59:24.425Z,-0.40
2022-12-03T01:02:13.147Z,-0.30
2022-12-03T01:05:01.980Z,-0.20
2022-12-03T01:07:50.735Z,-0.30
2022-12-03T01:10:39.466Z,-0.10
2022-12-03T01:13:27.928Z,-0.30
2022-12-03T01:16:17.941Z,-0.20
2022-12-03T01:19:10.553Z,-0.20
2022-12-03T01:21:59.003Z,-0.10
2022-12-03T01:24:47.616Z,0.00
2022-12-03T01:27:36.108Z,-0.20
2022-12-03T01:30:24.841Z,-0.20
2022-12-03T01:33:13.950Z,-0.10
2022-12-03T01:36:02.533Z,-0.30
2022-12-03T01:38:50.959Z,-0.40
2022-12-03T01:41:40.240Z,-0.40
2022-12-03T01:44:32.142Z,-0.30
2022-12-03T01:47:23.609Z,-0.30
2022-12-03T01:50:20.206Z,-0.20
2022-12-03T01:53:12.646Z,-0.20
2022-12-03T01:56:01.202Z,-0.20
2022-12-03T01:58:50.196Z,-0.50
2022-12-03T02:01:38.656Z,-0.20
2022-12-03T02:04:27.546Z,-0.30
2022-12-03T02:07:26.947Z,-0.30
2022-12-03T02:10:17.468Z,-0.40
2022-12-03T02:13:09.243Z,-0.30
2022-12-03T02:15:57.871Z,-0.30
2022-12-03T02:18:46.670Z,-0.30
2022-12-03T02:21:41.080Z,-0.20
2022-12-03T02:24:38.532Z,-0.30
2022-12-03T02:27:29.238Z,-0.10
2022-12-03T02:30:20.159Z,-0.10
2022-12-03T02:33:08.966Z,-0.20
2022-12-03T02:36:03.112Z,-0.30
2022-12-03T02:38:52.593Z,-0.10
2022-12-03T02:41:58.850Z,-0.10
2022-12-03T02:44:48.805Z,-0.20
2022-12-03T02:47:42.212Z,-0.20
2022-12-03T02:50:33.782Z,-0.20
2022-12-03T02:53:26.042Z,-0.20
2022-12-03T02:56:19.748Z,-0.10
2022-12-03T02:59:08.409Z,-0.20
2022-12-03T03:01:58.313Z,-0.10
2022-12-03T03:04:46.988Z,0.00
2022-12-03T03:07:36.509Z,0.00
2022-12-03T03:10:25.820Z,0.00
2022-12-03T03:13:16.456Z,-0.10
2022-12-03T03:16:05.718Z,-0.20
2022-12-03T03:18:55.847Z,-0.30
2022-12-03T03:21:44.390Z,-0.20
2022-12-03T03:24:33.967Z,-0.10
2022-12-03T03:27:22.444Z,-0.10
2022-12-03T03:30:12.104Z,0.00
2022-12-03T03:33:00.695Z,0.10
2022-12-03T03:35:51.032Z,0.20
2022-12-03T03:38:40.228Z,0.20
2022-12-03T03:41:30.190Z,0.20
2022-12-03T03:44:18.681Z,0.10
2022-12-03T03:47:07.324Z,0.20
2022-12-03T03:49:56.162Z,0.10
2022-12-03T03:52:49.660Z,0.00
2022-12-03T03:55:38.870Z,-0.10
2022-12-03T03:58:27.451Z,0.00
2022-12-03T04:01:16.536Z,0.10
2022-12-03T04:04:06.389Z,0.10
2022-12-03T04:06:56.278Z,0.30
2022-12-03T04:09:46.306Z,0.30
2022-12-03T04:12:57.607Z,0.20
2022-12-03T04:15:46.101Z,0.10
2022-12-03T04:18:46.529Z,0.20
2022-12-03T04:21:52.689Z,0.10
2022-12-03T04:24:41.241Z,0.20
2022-12-03T04:27:48.638Z,0.10
2022-12-03T04:30:37.220Z,0.10
2022-12-03T04:33:43.145Z,0.10
2022-12-03T04:36:31.619Z,0.10
2022-12-03T04:39:22.531Z,0.00
2022-12-03T04:42:11.012Z,-0.10
2022-12-03T04:45:00.904Z,-0.10
2022-12-03T04:47:49.568Z,0.00
2022-12-03T04:50:38.090Z,-0.10
2022-12-03T04:53:26.773Z,-0.30
2022-12-03T04:56:15.299Z,-0.30
2022-12-03T04:59:03.724Z,-0.40
2022-12-03T05:01:53.721Z,-0.20
2022-12-03T05:04:42.309Z,-0.20
2022-12-03T05:07:32.183Z,-0.10
2022-12-03T05:10:20.968Z,0.00
2022-12-03T05:13:09.484Z,-0.10
2022-12-03T05:15:58.459Z,0.00
2022-12-03T05:18:48.587Z,0.10
2022-12-03T05:21:37.325Z,0.00
2022-12-03T05:24:26.234Z,-0.10
2022-12-03T05:27:18.789Z,-0.10
2022-12-03T05:30:11.632Z,0.10
2022-12-03T05:33:00.248Z,0.10
2022-12-03T05:35:50.203Z,0.10
2022-12-03T05:38:38.875Z,0.10
2022-12-03T05:41:44.702Z,0.20
2022-12-03T05:44:33.342Z,0.10
2022-12-03T05:47:21.968Z,0.10
2022-12-03T05:50:10.777Z,0.10
2022-12-03T05:53:00.585Z,0.30
2022-12-03T05:55:49.069Z,0.20
2022-12-03T05:58:37.622Z,0.20
2022-12-03T06:01:26.134Z,0.20
2022-12-03T06:04:14.601Z,0.30
2022-12-03T06:07:03.044Z,0.30
2022-12-03T06:09:52.994Z,0.20
2022-12-03T06:12:42.292Z,0.30
2022-12-03T06:15:31.041Z,0.30
2022-12-03T06:18:19.689Z,0.30
2022-12-03T06:21:08.323Z,0.30
2022-12-03T06:23:56.968Z,0.30
2022-12-03T06:26:47.022Z,0.30
2022-12-03T06:29:36.106Z,0.30
2022-12-03T06:32:24.575Z,0.10
2022-12-03T06:35:13.090Z,0.30
2022-12-03T06:38:01.672Z,0.40
2022-12-03T06:40:50.321Z,0.40
2022-12-03T06:43:40.348Z,0.40
2022-12-03T06:46:28.825Z,0.30
2022-12-03T06:49:17.354Z,0.40
2022-12-03T06:52:06.254Z,0.60
2022-12-03T06:54:54.981Z,0.50
2022-12-03T06:57:43.984Z,0.50
2022-12-03T07:00:34.509Z,0.50
2022-12-03T07:03:23.167Z,0.50
2022-12-03T07:06:11.864Z,0.50
2022-12-03T07:09:00.460Z,0.70
2022-12-03T07:11:50.197Z,0.60
2022-12-03T07:14:38.715Z,0.60
2022-12-03T07:17:28.632Z,0.30
2022-12-03T07:20:17.478Z,0.50
2022-12-03T07:23:05.923Z,0.70
2022-12-03T07:25:54.370Z,0.60
2022-12-03T07:28:42.911Z,0.40
2022-12-03T07:31:31.607Z,0.40
2022-12-03T07:34:21.670Z,0.40
2022-12-03T07:37:10.207Z,0.10
2022-12-03T07:39:58.804Z,0.30
2022-12-03T07:42:47.539Z,0.10
2022-12-03T07:45:36.124Z,0.20
2022-12-03T07:48:24.651Z,0.20
2022-12-03T07:51:15.601Z,0.40
2022-12-03T07:54:04.704Z,0.50
2022-12-03T07:56:59.577Z,0.50
2022-12-03T07:59:49.888Z,0.50
2022-12-03T08:02:38.594Z,0.60
2022-12-03T08:05:29.582Z,0.70
2022-12-03T08:08:19.479Z,0.60
2022-12-03T08:11:08.057Z,0.60
2022-12-03T08:13:57.433Z,0.50
2022-12-03T08:16:48.117Z,0.50
2022-12-03T08:19:36.744Z,0.60
2022-12-03T08:22:26.277Z,0.60
2022-12-03T08:25:21.975Z,0.70
2022-12-03T08:31:18.684Z,0.50
2022-12-03T08:34:19.720Z,0.70
2022-12-03T08:37:16.662Z,0.60
2022-12-03T08:40:21.629Z,0.60
2022-12-03T08:43:18.085Z,0.60
2022-12-03T08:46:17.049Z,0.60
2022-12-03T08:49:06.326Z,0.60
2022-12-03T08:51:58.629Z,0.80
2022-12-03T08:54:52.520Z,1.00
2022-12-03T08:57:43.477Z,1.00
2022-12-03T09:00:32.387Z,1.00
2022-12-03T09:03:22.289Z,1.20
2022-12-03T09:06:10.720Z,1.10
2022-12-03T09:09:03.817Z,1.00
2022-12-03T09:11:55.882Z,1.10
2022-12-03T09:14:44.659Z,1.00
2022-12-03T09:17:33.229Z,0.90
2022-12-03T09:20:23.128Z,0.90
2022-12-03T09:23:11.668Z,0.90
2022-12-03T09:26:00.442Z,0.90
2022-12-03T09:28:49.475Z,0.80
2022-12-03T09:31:38.284Z,1.00
2022-12-03T11:12:23.062Z,2.00
2022-12-03T11:15:16.984Z,1.90
2022-12-03T11:18:05.494Z,2.00
2022-12-03T11:21:03.828Z,1.90
2022-12-03T11:24:19.951Z,1.90
2022-12-03T11:27:21.783Z,1.80
2022-12-03T11:30:11.602Z,1.90
2022-12-03T11:33:02.898Z,2.00
2022-12-03T11:36:16.142Z,1.90
2022-12-03T11:39:07.833Z,1.90
2022-12-03T11:42:38.325Z,2.00
2022-12-03T11:45:36.504Z,2.00
2022-12-03T11:48:25.141Z,2.10
2022-12-03T11:51:16.041Z,2.30
2022-12-03T11:54:04.871Z,2.40
2022-12-03T11:56:56.090Z,2.30
2022-12-03T12:00:01.021Z,2.40
2022-12-03T12:02:50.697Z,2.40
2022-12-03T12:05:39.291Z,2.30
2022-12-03T12:08:27.835Z,2.30
2022-12-03T12:11:20.558Z,2.30
2022-12-03T12:14:10.198Z,2.50
2022-12-03T12:17:03.359Z,2.50
2022-12-03T12:19:54.516Z,2.50
2022-12-03T12:22:43.344Z,2.50
2022-12-03T12:25:40.540Z,2.60
2022-12-03T12:28:29.202Z,2.50
2022-12-03T12:31:17.871Z,2.60
2022-12-03T12:34:12.865Z,2.70
2022-12-03T12:37:02.310Z,2.70
2022-12-03T12:39:54.941Z,2.50
2022-12-03T12:42:50.176Z,2.50
2022-12-03T12:45:39.951Z,2.50
2022-12-03T12:48:30.068Z,2.40
2022-12-03T12:51:20.415Z,2.60
2022-12-03T12:54:12.668Z,2.70
2022-12-03T12:57:01.154Z,2.70
2022-12-03T12:59:49.900Z,2.80
2022-12-03T13:02:45.923Z,2.80
2022-12-03T13:05:39.769Z,2.80
2022-12-03T13:08:32.375Z,2.90
2022-12-03T13:11:35.535Z,2.60
2022-12-03T13:14:25.677Z,2.80
2022-12-03T13:17:17.142Z,2.80
2022-12-03T13:20:19.205Z,2.80
2022-12-03T13:23:23.585Z,2.70
2022-12-03T13:26:36.060Z,2.80
2022-12-03T13:29:28.938Z,2.80
2022-12-03T13:32:20.781Z,2.80
2022-12-03T13:35:17.657Z,2.80
2022-12-03T13:38:16.569Z,2.80
2022-12-03T13:41:05.117Z,2.80
2022-12-03T15:20:03.594Z,2.60
2022-12-03T15:22:52.126Z,2.70
2022-12-03T15:25:40.737Z,2.70
2022-12-03T15:28:29.355Z,2.80
2022-12-03T15:31:18.537Z,2.80
2022-12-03T15:34:07.124Z,2.90
2022-12-03T15:36:57.034Z,2.90
2022-12-03T15:39:48.727Z,2.90
2022-12-03T15:42:37.456Z,2.90
2022-12-03T15:45:25.999Z,2.80
2022-12-03T15:48:14.719Z,2.80
2022-12-03T15:51:03.263Z,2.80
2022-12-03T15:53:53.599Z,3.00
2022-12-03T15:56:42.155Z,2.90
2022-12-03T15:59:30.669Z,3.00
2022-12-03T16:02:19.429Z,2.80
2022-12-03T16:05:10.557Z,2.70
2022-12-03T16:07:59.883Z,2.70
2022-12-03T16:10:49.989Z,2.70
2022-12-03T16:13:38.522Z,2.70
2022-12-03T16:16:27.260Z,2.80
2022-12-03T16:19:15.874Z,2.70
2022-12-03T16:22:04.496Z,2.80
2022-12-03T16:24:53.036Z,2.90
2022-12-03T16:27:43.012Z,2.70
2022-12-03T16:30:31.792Z,2.80
2022-12-03T16:33:27.041Z,2.70
2022-12-03T16:36:16.656Z,2.70
2022-12-03T16:39:05.418Z,2.80
2022-12-03T16:41:53.912Z,2.70
2022-12-03T16:45:15.299Z,2.70
2022-12-03T16:48:03.842Z,2.90
2022-12-03T16:50:52.345Z,2.90
2022-12-03T16:53:40.900Z,2.90
2022-12-03T16:56:29.384Z,2.90
2022-12-03T16:59:18.507Z,3.00
2022-12-03T17:02:08.939Z,3.00
2022-12-03T17:04:57.767Z,2.90
2022-12-03T17:07:47.199Z,3.00
2022-12-03T17:11:52.381Z,2.80
2022-12-03T17:14:41.502Z,3.80
2022-12-03T17:18:36.663Z,2.80
2022-12-03T17:21:25.149Z,2.80
2022-12-03T17:24:13.820Z,3.00
2022-12-03T17:27:02.636Z,2.90
2022-12-03T17:29:51.310Z,2.90
2022-12-03T17:32:39.919Z,2.80
2022-12-03T17:35:29.889Z,2.70
2022-12-03T17:38:18.347Z,2.70
2022-12-03T17:41:07.439Z,2.80
2022-12-03T17:43:55.914Z,2.90
2022-12-03T17:46:44.653Z,2.80
2022-12-03T17:49:33.251Z,2.70
2022-12-03T17:52:23.173Z,2.80
2022-12-03T17:55:16.275Z,2.80
2022-12-03T17:58:10.083Z,2.80
2022-12-03T18:01:02.439Z,2.90
2022-12-03T18:03:51.518Z,2.90
2022-12-03T18:06:40.411Z,2.90
2022-12-03T18:09:30.262Z,3.00
2022-12-03T18:12:18.728Z,2.90
2022-12-03T18:15:08.327Z,3.00
2022-12-03T18:17:56.830Z,3.00
2022-12-03T18:20:45.330Z,3.00
2022-12-03T18:23:34.316Z,3.00
2022-12-03T18:26:25.454Z,3.00
2022-12-03T18:29:14.014Z,3.00
2022-12-03T18:32:02.688Z,2.80
2022-12-03T18:34:51.265Z,3.00
2022-12-03T18:37:39.958Z,3.00
2022-12-03T18:40:28.701Z,3.00
2022-12-03T18:43:18.652Z,3.00
2022-12-03T18:46:31.140Z,2.90
2022-12-03T18:49:20.198Z,2.70
2022-12-03T18:52:10.128Z,2.60
2022-12-03T18:54:58.616Z,2.60
2022-12-03T18:57:47.596Z,2.70
2022-12-03T19:00:38.199Z,2.70
2022-12-03T19:03:27.100Z,2.60
2022-12-03T19:06:19.052Z,2.60
2022-12-03T19:09:07.979Z,2.70
2022-12-03T19:11:56.426Z,2.70
2022-12-03T19:14:44.902Z,2.90
2022-12-03T19:17:34.847Z,2.90
2022-12-03T19:20:23.436Z,2.90
2022-12-03T19:23:12.025Z,2.90
2022-12-03T19:26:02.507Z,2.80
2022-12-03T19:28:51.037Z,2.80
2022-12-03T19:31:39.581Z,2.80
2022-12-03T19:34:30.023Z,2.90
2022-12-03T19:37:18.563Z,2.80
2022-12-03T19:40:10.297Z,2.80
2022-12-03T19:42:58.802Z,2.80
2022-12-03T19:45:47.500Z,2.90
2022-12-03T19:48:37.537Z,3.00
2022-12-03T19:51:36.046Z,2.90
2022-12-03T19:54:25.210Z,2.90
2022-12-03T19:57:16.754Z,2.90
2022-12-03T20:00:08.268Z,3.00
2022-12-03T20:03:01.055Z,3.10
2022-12-03T20:05:50.717Z,3.20
2022-12-03T20:08:41.111Z,3.10
2022-12-03T20:11:31.835Z,3.20
2022-12-03T20:14:21.586Z,3.20
2022-12-03T20:17:10.248Z,3.20
2022-12-03T20:19:58.981Z,3.10
2022-12-03T20:22:47.576Z,3.10
2022-12-03T20:25:38.904Z,3.10
2022-12-03T20:28:29.024Z,3.20
2022-12-03T20:31:19.707Z,3.00
2022-12-03T20:34:08.620Z,3.10
2022-12-03T20:36:57.174Z,3.00
2022-12-03T20:39:45.700Z,2.90
2022-12-03T20:42:35.583Z,2.90
2022-12-03T20:45:25.073Z,2.90
2022-12-03T20:48:13.607Z,3.10
2022-12-03T20:51:04.786Z,3.00
2022-12-03T20:53:54.033Z,3.10
2022-12-03T20:56:43.094Z,3.10
2022-12-03T20:59:33.564Z,3.20
2022-12-03T21:02:22.470Z,3.30
2022-12-03T21:05:11.192Z,3.30
2022-12-03T21:08:00.126Z,3.30
2022-12-03T21:10:48.657Z,3.30
2022-12-03T21:13:37.330Z,3.20
2022-12-03T21:16:59.212Z,3.10
2022-12-03T21:19:39.564Z,3.00
2022-12-03T21:22:28.283Z,3.00
2022-12-03T21:25:16.914Z,3.10
2022-12-03T21:28:06.596Z,3.10
2022-12-03T21:30:55.259Z,3.10
2022-12-03T21:33:45.815Z,3.10
2022-12-03T21:36:34.295Z,3.10
2022-12-03T21:39:23.013Z,3.10
2022-12-03T21:42:34.007Z,3.00
2022-12-03T21:45:20.529Z,3.00
2022-12-03T21:48:09.244Z,2.90
2022-12-03T21:51:04.027Z,2.90
2022-12-03T21:53:52.565Z,3.10
2022-12-03T21:56:41.202Z,2.90
2022-12-03T21:59:29.843Z,2.90
2022-12-03T22:02:18.370Z,3.10
2022-12-03T22:05:08.306Z,3.00
2022-12-03T22:07:58.303Z,3.00
2022-12-03T22:10:46.916Z,3.10
2022-12-03T22:13:35.474Z,3.00
2022-12-03T22:16:24.515Z,3.00
2022-12-03T22:19:13.117Z,3.00
2022-12-03T22:22:01.703Z,3.00
2022-12-03T22:24:51.646Z,2.80
2022-12-03T22:27:40.187Z,2.90
2022-12-03T22:30:29.004Z,2.60
2022-12-03T22:33:17.585Z,2.70
2022-12-03T22:36:08.388Z,2.80
2022-12-03T22:38:57.060Z,2.90
2022-12-03T22:41:47.094Z,2.80
2022-12-03T22:44:35.636Z,2.80
2022-12-03T22:47:24.528Z,2.80
2022-12-03T22:50:13.108Z,2.60
2022-12-03T22:53:01.970Z,2.70
2022-12-03T22:55:56.628Z,2.60
2022-12-03T22:58:46.649Z,2.70
2022-12-03T23:01:36.974Z,2.70
2022-12-03T23:04:25.440Z,2.90
2022-12-03T23:07:13.990Z,2.70
2022-12-03T23:10:02.634Z,2.60
2022-12-03T23:12:51.068Z,2.60
2022-12-03T23:15:45.587Z,2.70
2022-12-03T23:18:34.750Z,2.70
2022-12-03T23:21:29.532Z,2.70
2022-12-03T23:24:18.515Z,2.70
2022-12-03T23:27:07.060Z,2.80
2022-12-03T23:29:56.088Z,2.80
2022-12-03T23:32:46.196Z,2.70
2022-12-03T23:35:34.865Z,2.80
2022-12-03T23:38:23.569Z,2.90
2022-12-03T23:41:14.333Z,2.90
2022-12-03T23:44:02.837Z,3.00
2022-12-03T23:46:51.351Z,3.00
2022-12-03T23:49:41.279Z,3.00
2022-12-03T23:52:30.027Z,2.80
2022-12-03T23:55:18.791Z,2.70
2022-12-03T23:58:07.248Z,2.80
